sensor_id;sensor_type;location;lat;lon;timestamp;pressure;altitude;pressure_sealevel;temperature;humidity
10940;BME280;5522;42.696;23.494;2023-12-07T00:00:33;53861.84;;;-139.68;100.00
10940;BME280;5522;42.696;23.494;2023-12-07T00:02:59;53863.88;;;-139.68;100.00
10940;BME280;5522;42.696;23.494;2023-12-07T00:05:28;53835.72;;;-139.68;100.00
10940;BME280;5522;42.696;23.494;2023-12-07T00:07:54;53916.13;;;-139.68;100.00
10940;BME280;5522;42.696;23.494;2023-12-07T00:10:21;53851.81;;;-139.68;100.00
10940;BME280;5522;42.696;23.494;2023-12-07T00:12:48;53817.63;;;-139.68;100.00
10940;BME280;5522;42.696;23.494;2023-12-07T00:15:15;53831.69;;;-139.68;100.00
10940;BME280;5522;42.696;23.494;2023-12-07T00:17:42;53835.72;;;-139.68;100.00
10940;BME280;5522;42.696;23.494;2023-12-07T00:20:10;53841.75;;;-139.68;100.00
10940;BME280;5522;42.696;23.494;2023-12-07T00:22:38;53839.75;;;-139.68;100.00
10940;BME280;5522;42.696;23.494;2023-12-07T00:25:06;53819.63;;;-139.68;100.00
10940;BME280;5522;42.696;23.494;2023-12-07T00:27:33;53833.72;;;-139.68;100.00
10940;BME280;5522;42.696;23.494;2023-12-07T00:30:00;53827.69;;;-139.68;100.00
10940;BME280;5522;42.696;23.494;2023-12-07T00:32:26;53855.81;;;-139.68;100.00
10940;BME280;5522;42.696;23.494;2023-12-07T00:34:53;53849.78;;;-139.68;100.00
10940;BME280;5522;42.696;23.494;2023-12-07T00:37:20;53851.81;;;-139.68;100.00
10940;BME280;5522;42.696;23.494;2023-12-07T00:39:49;53851.81;;;-139.68;100.00
10940;BME280;5522;42.696;23.494;2023-12-07T00:42:15;53861.84;;;-139.68;100.00
10940;BME280;5522;42.696;23.494;2023-12-07T00:44:42;53831.69;;;-139.68;100.00
10940;BME280;5522;42.696;23.494;2023-12-07T00:47:09;53851.81;;;-139.68;100.00
10940;BME280;5522;42.696;23.494;2023-12-07T00:49:37;53863.88;;;-139.68;100.00
10940;BME280;5522;42.696;23.494;2023-12-07T00:52:06;53859.84;;;-139.68;100.00
10940;BME280;5522;42.696;23.494;2023-12-07T00:54:32;53863.88;;;-139.68;100.00
10940;BME280;5522;42.696;23.494;2023-12-07T00:57:01;53863.88;;;-139.68;100.00
10940;BME280;5522;42.696;23.494;2023-12-07T00:59:27;53851.81;;;-139.68;100.00
10940;BME280;5522;42.696;23.494;2023-12-07T01:07:12;53847.78;;;-139.68;100.00
10940;BME280;5522;42.696;23.494;2023-12-07T01:09:39;53867.88;;;-139.68;100.00
10940;BME280;5522;42.696;23.494;2023-12-07T01:12:07;53867.88;;;-139.68;100.00
10940;BME280;5522;42.696;23.494;2023-12-07T01:14:34;53867.88;;;-139.68;100.00
10940;BME280;5522;42.696;23.494;2023-12-07T01:17:01;53857.84;;;-139.68;100.00
10940;BME280;5522;42.696;23.494;2023-12-07T01:19:28;53871.91;;;-139.68;100.00
10940;BME280;5522;42.696;23.494;2023-12-07T01:21:55;53896.03;;;-139.68;100.00
10940;BME280;5522;42.696;23.494;2023-12-07T01:24:22;53847.78;;;-139.68;100.00
10940;BME280;5522;42.696;23.494;2023-12-07T01:26:49;53845.78;;;-139.68;100.00
10940;BME280;5522;42.696;23.494;2023-12-07T01:29:17;53867.88;;;-139.68;100.00
10940;BME280;5522;42.696;23.494;2023-12-07T01:31:44;53859.84;;;-139.68;100.00
10940;BME280;5522;42.696;23.494;2023-12-07T01:34:11;53867.88;;;-139.68;100.00
10940;BME280;5522;42.696;23.494;2023-12-07T01:36:38;53831.69;;;-139.68;100.00
10940;BME280;5522;42.696;23.494;2023-12-07T01:39:05;53825.66;;;-139.68;100.00
10940;BME280;5522;42.696;23.494;2023-12-07T01:41:32;53851.81;;;-139.68;100.00
10940;BME280;5522;42.696;23.494;2023-12-07T01:43:59;53898.03;;;-139.68;100.00
10940;BME280;5522;42.696;23.494;2023-12-07T01:46:27;53859.84;;;-139.68;100.00
10940;BME280;5522;42.696;23.494;2023-12-07T01:48:54;53853.81;;;-139.68;100.00
10940;BME280;5522;42.696;23.494;2023-12-07T01:51:21;53879.94;;;-139.68;100.00
10940;BME280;5522;42.696;23.494;2023-12-07T01:53:49;53881.97;;;-139.68;100.00
10940;BME280;5522;42.696;23.494;2023-12-07T01:56:16;53851.81;;;-139.68;100.00
10940;BME280;5522;42.696;23.494;2023-12-07T01:58:43;53865.88;;;-139.68;100.00
10940;BME280;5522;42.696;23.494;2023-12-07T02:01:11;53881.97;;;-139.68;100.00
10940;BME280;5522;42.696;23.494;2023-12-07T02:03:40;53873.91;;;-139.68;100.00
10940;BME280;5522;42.696;23.494;2023-12-07T02:06:08;53851.81;;;-139.68;100.00
10940;BME280;5522;42.696;23.494;2023-12-07T02:08:36;53811.59;;;-139.68;100.00
10940;BME280;5522;42.696;23.494;2023-12-07T02:11:07;53900.06;;;-139.68;100.00
10940;BME280;5522;42.696;23.494;2023-12-07T02:13:34;53869.91;;;-139.68;100.00
10940;BME280;5522;42.696;23.494;2023-12-07T02:16:04;53851.81;;;-139.68;100.00
10940;BME280;5522;42.696;23.494;2023-12-07T02:18:44;53831.69;;;-139.68;100.00
10940;BME280;5522;42.696;23.494;2023-12-07T02:21:20;53857.84;;;-139.68;100.00
10940;BME280;5522;42.696;23.494;2023-12-07T02:23:51;53839.75;;;-139.68;100.00
10940;BME280;5522;42.696;23.494;2023-12-07T02:26:51;53817.63;;;-139.68;100.00
10940;BME280;5522;42.696;23.494;2023-12-07T02:29:17;53849.78;;;-139.68;100.00
10940;BME280;5522;42.696;23.494;2023-12-07T02:31:44;53857.84;;;-139.68;100.00
10940;BME280;5522;42.696;23.494;2023-12-07T02:34:12;53883.97;;;-139.68;100.00
10940;BME280;5522;42.696;23.494;2023-12-07T02:36:40;53865.88;;;-139.68;100.00
10940;BME280;5522;42.696;23.494;2023-12-07T02:39:08;53821.66;;;-139.68;100.00
10940;BME280;5522;42.696;23.494;2023-12-07T02:41:39;53847.78;;;-139.68;100.00
10940;BME280;5522;42.696;23.494;2023-12-07T02:44:08;53877.94;;;-139.68;100.00
10940;BME280;5522;42.696;23.494;2023-12-07T02:46:35;53815.63;;;-139.68;100.00
10940;BME280;5522;42.696;23.494;2023-12-07T02:49:02;53831.69;;;-139.68;100.00
10940;BME280;5522;42.696;23.494;2023-12-07T02:51:29;53863.88;;;-139.68;100.00
10940;BME280;5522;42.696;23.494;2023-12-07T02:53:55;53877.94;;;-139.68;100.00
10940;BME280;5522;42.696;23.494;2023-12-07T02:56:22;53871.91;;;-139.68;100.00
10940;BME280;5522;42.696;23.494;2023-12-07T02:58:49;53906.06;;;-139.68;100.00
10940;BME280;5522;42.696;23.494;2023-12-07T03:01:17;53912.13;;;-139.68;100.00
10940;BME280;5522;42.696;23.494;2023-12-07T03:03:44;53843.75;;;-139.68;100.00
10940;BME280;5522;42.696;23.494;2023-12-07T03:06:11;53879.94;;;-139.68;100.00
10940;BME280;5522;42.696;23.494;2023-12-07T03:08:38;53851.81;;;-139.68;100.00
10940;BME280;5522;42.696;23.494;2023-12-07T03:11:05;53831.69;;;-139.68;100.00
10940;BME280;5522;42.696;23.494;2023-12-07T03:13:32;53841.75;;;-139.68;100.00
10940;BME280;5522;42.696;23.494;2023-12-07T03:15:59;53859.84;;;-139.68;100.00
10940;BME280;5522;42.696;23.494;2023-12-07T03:18:27;53859.84;;;-139.68;100.00
10940;BME280;5522;42.696;23.494;2023-12-07T03:20:54;53865.88;;;-139.68;100.00
10940;BME280;5522;42.696;23.494;2023-12-07T03:23:21;53871.91;;;-139.68;100.00
10940;BME280;5522;42.696;23.494;2023-12-07T03:25:51;53835.72;;;-139.68;100.00
10940;BME280;5522;42.696;23.494;2023-12-07T03:28:17;53851.81;;;-139.68;100.00
10940;BME280;5522;42.696;23.494;2023-12-07T03:30:44;53843.75;;;-139.68;100.00
10940;BME280;5522;42.696;23.494;2023-12-07T03:33:11;53851.81;;;-139.68;100.00
10940;BME280;5522;42.696;23.494;2023-12-07T03:35:39;53863.88;;;-139.68;100.00
10940;BME280;5522;42.696;23.494;2023-12-07T03:38:06;53892.00;;;-139.68;100.00
10940;BME280;5522;42.696;23.494;2023-12-07T03:40:33;53879.94;;;-139.68;100.00
10940;BME280;5522;42.696;23.494;2023-12-07T03:43:00;53883.97;;;-139.68;100.00
10940;BME280;5522;42.696;23.494;2023-12-07T03:45:28;53883.97;;;-139.68;100.00
10940;BME280;5522;42.696;23.494;2023-12-07T03:47:55;53857.84;;;-139.68;100.00
10940;BME280;5522;42.696;23.494;2023-12-07T03:50:22;53875.94;;;-139.68;100.00
10940;BME280;5522;42.696;23.494;2023-12-07T03:52:50;53863.88;;;-139.68;100.00
10940;BME280;5522;42.696;23.494;2023-12-07T03:55:17;53853.81;;;-139.68;100.00
10940;BME280;5522;42.696;23.494;2023-12-07T03:57:44;53831.69;;;-139.68;100.00
10940;BME280;5522;42.696;23.494;2023-12-07T04:00:12;53847.78;;;-139.68;100.00
10940;BME280;5522;42.696;23.494;2023-12-07T04:02:39;53888.00;;;-139.68;100.00
10940;BME280;5522;42.696;23.494;2023-12-07T04:05:06;53831.69;;;-139.68;100.00
10940;BME280;5522;42.696;23.494;2023-12-07T04:07:34;53851.81;;;-139.68;100.00
10940;BME280;5522;42.696;23.494;2023-12-07T04:10:02;53835.72;;;-139.68;100.00
10940;BME280;5522;42.696;23.494;2023-12-07T04:12:31;53839.75;;;-139.68;100.00
10940;BME280;5522;42.696;23.494;2023-12-07T04:14:57;53839.75;;;-139.68;100.00
10940;BME280;5522;42.696;23.494;2023-12-07T04:17:24;53865.88;;;-139.68;100.00
10940;BME280;5522;42.696;23.494;2023-12-07T04:19:51;53849.78;;;-139.68;100.00
10940;BME280;5522;42.696;23.494;2023-12-07T04:22:18;53849.78;;;-139.68;100.00
10940;BME280;5522;42.696;23.494;2023-12-07T04:24:45;53855.81;;;-139.68;100.00
10940;BME280;5522;42.696;23.494;2023-12-07T04:27:13;53865.88;;;-139.68;100.00
10940;BME280;5522;42.696;23.494;2023-12-07T04:29:40;53881.97;;;-139.68;100.00
10940;BME280;5522;42.696;23.494;2023-12-07T04:32:07;53841.75;;;-139.68;100.00
10940;BME280;5522;42.696;23.494;2023-12-07T04:34:34;53791.50;;;-139.68;100.00
10940;BME280;5522;42.696;23.494;2023-12-07T04:37:01;53835.72;;;-139.68;100.00
10940;BME280;5522;42.696;23.494;2023-12-07T04:39:28;53863.88;;;-139.68;100.00
10940;BME280;5522;42.696;23.494;2023-12-07T04:41:55;53845.78;;;-139.68;100.00
10940;BME280;5522;42.696;23.494;2023-12-07T04:44:23;53881.97;;;-139.68;100.00
10940;BME280;5522;42.696;23.494;2023-12-07T04:46:51;53857.84;;;-139.68;100.00
10940;BME280;5522;42.696;23.494;2023-12-07T04:49:18;53857.84;;;-139.68;100.00
10940;BME280;5522;42.696;23.494;2023-12-07T04:51:45;53859.84;;;-139.68;100.00
10940;BME280;5522;42.696;23.494;2023-12-07T04:54:12;53851.81;;;-139.68;100.00
10940;BME280;5522;42.696;23.494;2023-12-07T04:56:40;53863.88;;;-139.68;100.00
10940;BME280;5522;42.696;23.494;2023-12-07T04:59:07;53859.84;;;-139.68;100.00
10940;BME280;5522;42.696;23.494;2023-12-07T05:01:35;53892.00;;;-139.68;100.00
10940;BME280;5522;42.696;23.494;2023-12-07T05:04:02;53859.84;;;-139.68;100.00
10940;BME280;5522;42.696;23.494;2023-12-07T05:06:30;53839.75;;;-139.68;100.00
10940;BME280;5522;42.696;23.494;2023-12-07T05:08:57;53871.91;;;-139.68;100.00
10940;BME280;5522;42.696;23.494;2023-12-07T05:11:24;53857.84;;;-139.68;100.00
10940;BME280;5522;42.696;23.494;2023-12-07T05:13:51;53839.75;;;-139.68;100.00
10940;BME280;5522;42.696;23.494;2023-12-07T05:16:18;53843.75;;;-139.68;100.00
10940;BME280;5522;42.696;23.494;2023-12-07T05:18:46;53875.94;;;-139.68;100.00
10940;BME280;5522;42.696;23.494;2023-12-07T05:21:13;53892.00;;;-139.68;100.00
10940;BME280;5522;42.696;23.494;2023-12-07T05:23:40;53843.75;;;-139.68;100.00
10940;BME280;5522;42.696;23.494;2023-12-07T05:26:06;53853.81;;;-139.68;100.00
10940;BME280;5522;42.696;23.494;2023-12-07T05:28:35;53912.13;;;-139.68;100.00
10940;BME280;5522;42.696;23.494;2023-12-07T05:31:03;53871.91;;;-139.68;100.00
10940;BME280;5522;42.696;23.494;2023-12-07T05:33:29;53843.75;;;-139.68;100.00
10940;BME280;5522;42.696;23.494;2023-12-07T05:35:58;53888.00;;;-139.68;100.00
10940;BME280;5522;42.696;23.494;2023-12-07T05:38:26;53847.78;;;-139.68;100.00
10940;BME280;5522;42.696;23.494;2023-12-07T05:40:52;53879.94;;;-139.68;100.00
10940;BME280;5522;42.696;23.494;2023-12-07T05:43:19;53888.00;;;-139.68;100.00
10940;BME280;5522;42.696;23.494;2023-12-07T05:45:46;53914.13;;;-139.68;100.00
10940;BME280;5522;42.696;23.494;2023-12-07T05:48:13;53873.91;;;-139.68;100.00
10940;BME280;5522;42.696;23.494;2023-12-07T05:50:40;53867.88;;;-139.68;100.00
10940;BME280;5522;42.696;23.494;2023-12-07T05:53:08;53867.88;;;-139.68;100.00
10940;BME280;5522;42.696;23.494;2023-12-07T05:55:36;53843.75;;;-139.68;100.00
10940;BME280;5522;42.696;23.494;2023-12-07T05:58:02;53908.09;;;-139.68;100.00
10940;BME280;5522;42.696;23.494;2023-12-07T06:00:30;53857.84;;;-139.68;100.00
10940;BME280;5522;42.696;23.494;2023-12-07T06:02:57;53875.94;;;-139.68;100.00
10940;BME280;5522;42.696;23.494;2023-12-07T06:05:24;53843.75;;;-139.68;100.00
10940;BME280;5522;42.696;23.494;2023-12-07T06:07:52;53841.75;;;-139.68;100.00
10940;BME280;5522;42.696;23.494;2023-12-07T06:10:25;53869.91;;;-139.68;100.00
10940;BME280;5522;42.696;23.494;2023-12-07T06:12:55;53875.94;;;-139.68;100.00
10940;BME280;5522;42.696;23.494;2023-12-07T06:15:25;53839.75;;;-139.68;100.00
10940;BME280;5522;42.696;23.494;2023-12-07T06:17:52;53883.97;;;-139.68;100.00
10940;BME280;5522;42.696;23.494;2023-12-07T06:20:21;53843.75;;;-139.68;100.00
10940;BME280;5522;42.696;23.494;2023-12-07T06:22:50;53863.88;;;-139.68;100.00
10940;BME280;5522;42.696;23.494;2023-12-07T06:25:15;53859.84;;;-139.68;100.00
10940;BME280;5522;42.696;23.494;2023-12-07T06:27:44;53853.81;;;-139.68;100.00
10940;BME280;5522;42.696;23.494;2023-12-07T06:30:11;53875.94;;;-139.68;100.00
10940;BME280;5522;42.696;23.494;2023-12-07T06:32:38;53859.84;;;-139.68;100.00
10940;BME280;5522;42.696;23.494;2023-12-07T06:35:06;53857.84;;;-139.68;100.00
10940;BME280;5522;42.696;23.494;2023-12-07T06:37:33;53855.81;;;-139.68;100.00
10940;BME280;5522;42.696;23.494;2023-12-07T06:39:59;53873.91;;;-139.68;100.00
10940;BME280;5522;42.696;23.494;2023-12-07T06:42:26;53873.91;;;-139.68;100.00
10940;BME280;5522;42.696;23.494;2023-12-07T06:44:55;53871.91;;;-139.68;100.00
10940;BME280;5522;42.696;23.494;2023-12-07T06:47:21;53851.81;;;-139.68;100.00
10940;BME280;5522;42.696;23.494;2023-12-07T06:49:48;53890.00;;;-139.68;100.00
10940;BME280;5522;42.696;23.494;2023-12-07T06:52:15;53859.84;;;-139.68;100.00
10940;BME280;5522;42.696;23.494;2023-12-07T06:54:42;53875.94;;;-139.68;100.00
10940;BME280;5522;42.696;23.494;2023-12-07T06:57:09;53883.97;;;-139.68;100.00
10940;BME280;5522;42.696;23.494;2023-12-07T06:59:36;53841.75;;;-139.68;100.00
10940;BME280;5522;42.696;23.494;2023-12-07T07:02:04;53892.00;;;-139.68;100.00
10940;BME280;5522;42.696;23.494;2023-12-07T07:04:31;53888.00;;;-139.68;100.00
10940;BME280;5522;42.696;23.494;2023-12-07T07:06:58;53912.13;;;-139.68;100.00
10940;BME280;5522;42.696;23.494;2023-12-07T07:09:24;53875.94;;;-139.68;100.00
10940;BME280;5522;42.696;23.494;2023-12-07T07:11:51;53873.91;;;-139.68;100.00
10940;BME280;5522;42.696;23.494;2023-12-07T07:14:19;53863.88;;;-139.68;100.00
10940;BME280;5522;42.696;23.494;2023-12-07T07:16:45;53867.88;;;-139.68;100.00
10940;BME280;5522;42.696;23.494;2023-12-07T07:19:14;53883.97;;;-139.68;100.00
10940;BME280;5522;42.696;23.494;2023-12-07T07:21:42;53845.78;;;-139.68;100.00
10940;BME280;5522;42.696;23.494;2023-12-07T07:24:09;53859.84;;;-139.68;100.00
10940;BME280;5522;42.696;23.494;2023-12-07T07:26:36;53912.13;;;-139.68;100.00
10940;BME280;5522;42.696;23.494;2023-12-07T07:29:04;53865.88;;;-139.68;100.00
10940;BME280;5522;42.696;23.494;2023-12-07T07:31:31;53920.16;;;-139.68;100.00
10940;BME280;5522;42.696;23.494;2023-12-07T07:33:58;53892.00;;;-139.68;100.00
10940;BME280;5522;42.696;23.494;2023-12-07T07:36:26;53904.06;;;-139.68;100.00
10940;BME280;5522;42.696;23.494;2023-12-07T07:38:54;53865.88;;;-139.68;100.00
10940;BME280;5522;42.696;23.494;2023-12-07T07:41:21;53875.94;;;-139.68;100.00
10940;BME280;5522;42.696;23.494;2023-12-07T07:43:49;53908.09;;;-139.68;100.00
10940;BME280;5522;42.696;23.494;2023-12-07T07:46:16;53888.00;;;-139.68;100.00
10940;BME280;5522;42.696;23.494;2023-12-07T07:48:43;53904.06;;;-139.68;100.00
10940;BME280;5522;42.696;23.494;2023-12-07T07:51:09;53875.94;;;-139.68;100.00
10940;BME280;5522;42.696;23.494;2023-12-07T07:53:38;53839.75;;;-139.68;100.00
10940;BME280;5522;42.696;23.494;2023-12-07T07:56:06;53890.00;;;-139.68;100.00
10940;BME280;5522;42.696;23.494;2023-12-07T07:58:34;53892.00;;;-139.68;100.00
10940;BME280;5522;42.696;23.494;2023-12-07T08:01:01;53888.00;;;-139.68;100.00
10940;BME280;5522;42.696;23.494;2023-12-07T08:03:28;53892.00;;;-139.68;100.00
10940;BME280;5522;42.696;23.494;2023-12-07T08:05:55;53892.00;;;-139.68;100.00
10940;BME280;5522;42.696;23.494;2023-12-07T08:11:45;53900.06;;;-139.68;100.00
10940;BME280;5522;42.696;23.494;2023-12-07T08:14:12;53875.94;;;-139.68;100.00
10940;BME280;5522;42.696;23.494;2023-12-07T08:16:42;53892.00;;;-139.68;100.00
10940;BME280;5522;42.696;23.494;2023-12-07T08:19:09;53922.16;;;-139.68;100.00
10940;BME280;5522;42.696;23.494;2023-12-07T08:21:36;53928.19;;;-139.68;100.00
10940;BME280;5522;42.696;23.494;2023-12-07T08:24:03;53920.16;;;-139.68;100.00
10940;BME280;5522;42.696;23.494;2023-12-07T08:26:31;53867.88;;;-139.68;100.00
10940;BME280;5522;42.696;23.494;2023-12-07T08:28:59;53912.13;;;-139.68;100.00
10940;BME280;5522;42.696;23.494;2023-12-07T08:31:26;53902.06;;;-139.68;100.00
10940;BME280;5522;42.696;23.494;2023-12-07T08:33:53;53926.19;;;-139.68;100.00
10940;BME280;5522;42.696;23.494;2023-12-07T08:36:19;53956.34;;;-139.68;100.00
10940;BME280;5522;42.696;23.494;2023-12-07T08:38:46;53936.22;;;-139.68;100.00
10940;BME280;5522;42.696;23.494;2023-12-07T08:41:13;53960.38;;;-139.68;100.00
10940;BME280;5522;42.696;23.494;2023-12-07T08:43:40;53924.16;;;-139.68;100.00
10940;BME280;5522;42.696;23.494;2023-12-07T08:46:09;53896.03;;;-139.68;100.00
10940;BME280;5522;42.696;23.494;2023-12-07T08:48:36;53944.28;;;-139.68;100.00
10940;BME280;5522;42.696;23.494;2023-12-07T08:51:03;53954.31;;;-139.68;100.00
10940;BME280;5522;42.696;23.494;2023-12-07T08:53:30;53924.16;;;-139.68;100.00
10940;BME280;5522;42.696;23.494;2023-12-07T08:55:56;53883.97;;;-139.68;100.00
10940;BME280;5522;42.696;23.494;2023-12-07T08:58:24;53904.06;;;-139.68;100.00
10940;BME280;5522;42.696;23.494;2023-12-07T09:00:50;53952.31;;;-139.68;100.00
10940;BME280;5522;42.696;23.494;2023-12-07T09:03:19;53916.13;;;-139.68;100.00
10940;BME280;5522;42.696;23.494;2023-12-07T09:05:46;53936.22;;;-139.68;100.00
10940;BME280;5522;42.696;23.494;2023-12-07T09:08:12;53922.16;;;-139.68;100.00
10940;BME280;5522;42.696;23.494;2023-12-07T09:10:39;53914.13;;;-139.68;100.00
10940;BME280;5522;42.696;23.494;2023-12-07T09:13:07;53932.22;;;-139.68;100.00
10940;BME280;5522;42.696;23.494;2023-12-07T09:15:33;53920.16;;;-139.68;100.00
10940;BME280;5522;42.696;23.494;2023-12-07T09:18:02;53912.13;;;-139.68;100.00
10940;BME280;5522;42.696;23.494;2023-12-07T09:20:31;53934.22;;;-139.68;100.00
10940;BME280;5522;42.696;23.494;2023-12-07T09:22:57;53926.19;;;-139.68;100.00
10940;BME280;5522;42.696;23.494;2023-12-07T09:25:24;53910.09;;;-139.68;100.00
10940;BME280;5522;42.696;23.494;2023-12-07T09:27:53;53875.94;;;-139.68;100.00
10940;BME280;5522;42.696;23.494;2023-12-07T09:30:20;53936.22;;;-139.68;100.00
10940;BME280;5522;42.696;23.494;2023-12-07T09:32:47;53904.06;;;-139.68;100.00
10940;BME280;5522;42.696;23.494;2023-12-07T09:35:15;53912.13;;;-139.68;100.00
10940;BME280;5522;42.696;23.494;2023-12-07T09:37:49;53948.31;;;-139.68;100.00
10940;BME280;5522;42.696;23.494;2023-12-07T09:40:16;53892.00;;;-139.68;100.00
10940;BME280;5522;42.696;23.494;2023-12-07T09:42:45;53890.00;;;-139.68;100.00
10940;BME280;5522;42.696;23.494;2023-12-07T09:45:15;53912.13;;;-139.68;100.00
10940;BME280;5522;42.696;23.494;2023-12-07T09:47:48;53924.16;;;-139.68;100.00
10940;BME280;5522;42.696;23.494;2023-12-07T09:50:16;53910.09;;;-139.68;100.00
10940;BME280;5522;42.696;23.494;2023-12-07T09:52:49;53936.22;;;-139.68;100.00
10940;BME280;5522;42.696;23.494;2023-12-07T09:55:25;53946.28;;;-139.68;100.00
10940;BME280;5522;42.696;23.494;2023-12-07T09:57:55;53924.16;;;-139.68;100.00
10940;BME280;5522;42.696;23.494;2023-12-07T10:00:26;53883.97;;;-139.68;100.00
10940;BME280;5522;42.696;23.494;2023-12-07T10:02:54;53888.00;;;-139.68;100.00
10940;BME280;5522;42.696;23.494;2023-12-07T10:05:23;53936.22;;;-139.68;100.00
10940;BME280;5522;42.696;23.494;2023-12-07T10:07:57;53916.13;;;-139.68;100.00
10940;BME280;5522;42.696;23.494;2023-12-07T10:10:24;53888.00;;;-139.68;100.00
10940;BME280;5522;42.696;23.494;2023-12-07T10:12:54;53904.06;;;-139.68;100.00
10940;BME280;5522;42.696;23.494;2023-12-07T10:15:24;53873.91;;;-139.68;100.00
10940;BME280;5522;42.696;23.494;2023-12-07T10:17:52;53902.06;;;-139.68;100.00
10940;BME280;5522;42.696;23.494;2023-12-07T10:20:23;53922.16;;;-139.68;100.00
10940;BME280;5522;42.696;23.494;2023-12-07T10:23:05;53928.19;;;-139.68;100.00
10940;BME280;5522;42.696;23.494;2023-12-07T10:25:35;53922.16;;;-139.68;100.00
10940;BME280;5522;42.696;23.494;2023-12-07T10:28:02;53920.16;;;-139.68;100.00
10940;BME280;5522;42.696;23.494;2023-12-07T10:30:33;53924.16;;;-139.68;100.00
10940;BME280;5522;42.696;23.494;2023-12-07T10:33:03;53888.00;;;-139.68;100.00
10940;BME280;5522;42.696;23.494;2023-12-07T10:35:31;53908.09;;;-139.68;100.00
10940;BME280;5522;42.696;23.494;2023-12-07T10:38:14;53904.06;;;-139.68;100.00
10940;BME280;5522;42.696;23.494;2023-12-07T10:40:44;53916.13;;;-139.68;100.00
10940;BME280;5522;42.696;23.494;2023-12-07T10:43:12;53928.19;;;-139.68;100.00
10940;BME280;5522;42.696;23.494;2023-12-07T10:45:43;53926.19;;;-139.68;100.00
10940;BME280;5522;42.696;23.494;2023-12-07T10:48:12;53883.97;;;-139.68;100.00
10940;BME280;5522;42.696;23.494;2023-12-07T10:50:42;53883.97;;;-139.68;100.00
10940;BME280;5522;42.696;23.494;2023-12-07T10:53:13;53908.09;;;-139.68;100.00
10940;BME280;5522;42.696;23.494;2023-12-07T10:55:47;53888.00;;;-139.68;100.00
10940;BME280;5522;42.696;23.494;2023-12-07T10:58:24;53896.03;;;-139.68;100.00
10940;BME280;5522;42.696;23.494;2023-12-07T11:00:52;53914.13;;;-139.68;100.00
10940;BME280;5522;42.696;23.494;2023-12-07T11:03:21;53892.00;;;-139.68;100.00
10940;BME280;5522;42.696;23.494;2023-12-07T11:05:51;53920.16;;;-139.68;100.00
10940;BME280;5522;42.696;23.494;2023-12-07T11:08:23;53910.09;;;-139.68;100.00
10940;BME280;5522;42.696;23.494;2023-12-07T11:11:00;53896.03;;;-139.68;100.00
10940;BME280;5522;42.696;23.494;2023-12-07T11:13:37;53898.03;;;-139.68;100.00
10940;BME280;5522;42.696;23.494;2023-12-07T11:16:05;53918.16;;;-139.68;100.00
10940;BME280;5522;42.696;23.494;2023-12-07T11:18:32;53900.06;;;-139.68;100.00
10940;BME280;5522;42.696;23.494;2023-12-07T11:20:59;53890.00;;;-139.68;100.00
10940;BME280;5522;42.696;23.494;2023-12-07T11:23:27;53873.91;;;-139.68;100.00
10940;BME280;5522;42.696;23.494;2023-12-07T11:26:04;53896.03;;;-139.68;100.00
10940;BME280;5522;42.696;23.494;2023-12-07T11:28:35;53875.94;;;-139.68;100.00
10940;BME280;5522;42.696;23.494;2023-12-07T11:31:06;53849.78;;;-139.68;100.00
10940;BME280;5522;42.696;23.494;2023-12-07T11:33:33;53883.97;;;-139.68;100.00
10940;BME280;5522;42.696;23.494;2023-12-07T11:36:04;53930.22;;;-139.68;100.00
10940;BME280;5522;42.696;23.494;2023-12-07T11:38:32;53910.09;;;-139.68;100.00
10940;BME280;5522;42.696;23.494;2023-12-07T11:41:00;53892.00;;;-139.68;100.00
10940;BME280;5522;42.696;23.494;2023-12-07T11:43:40;53910.09;;;-139.68;100.00
10940;BME280;5522;42.696;23.494;2023-12-07T11:46:12;53900.06;;;-139.68;100.00
10940;BME280;5522;42.696;23.494;2023-12-07T11:48:39;53879.94;;;-139.68;100.00
10940;BME280;5522;42.696;23.494;2023-12-07T11:51:12;53881.97;;;-139.68;100.00
10940;BME280;5522;42.696;23.494;2023-12-07T11:53:41;53871.91;;;-139.68;100.00
10940;BME280;5522;42.696;23.494;2023-12-07T11:56:10;53892.00;;;-139.68;100.00
10940;BME280;5522;42.696;23.494;2023-12-07T11:58:40;53918.16;;;-139.68;100.00
10940;BME280;5522;42.696;23.494;2023-12-07T12:01:10;53916.13;;;-139.68;100.00
10940;BME280;5522;42.696;23.494;2023-12-07T12:03:40;53908.09;;;-139.68;100.00
10940;BME280;5522;42.696;23.494;2023-12-07T12:06:09;53912.13;;;-139.68;100.00
10940;BME280;5522;42.696;23.494;2023-12-07T12:08:40;53902.06;;;-139.68;100.00
10940;BME280;5522;42.696;23.494;2023-12-07T12:11:07;53892.00;;;-139.68;100.00
10940;BME280;5522;42.696;23.494;2023-12-07T12:13:50;53926.19;;;-139.68;100.00
10940;BME280;5522;42.696;23.494;2023-12-07T12:16:17;53875.94;;;-139.68;100.00
10940;BME280;5522;42.696;23.494;2023-12-07T12:18:44;53912.13;;;-139.68;100.00
10940;BME280;5522;42.696;23.494;2023-12-07T12:21:10;53904.06;;;-139.68;100.00
10940;BME280;5522;42.696;23.494;2023-12-07T12:23:37;53875.94;;;-139.68;100.00
10940;BME280;5522;42.696;23.494;2023-12-07T12:26:06;53892.00;;;-139.68;100.00
10940;BME280;5522;42.696;23.494;2023-12-07T12:28:33;53883.97;;;-139.68;100.00
10940;BME280;5522;42.696;23.494;2023-12-07T12:31:05;53851.81;;;-139.68;100.00
10940;BME280;5522;42.696;23.494;2023-12-07T12:33:36;53908.09;;;-139.68;100.00
10940;BME280;5522;42.696;23.494;2023-12-07T12:36:06;53896.03;;;-139.68;100.00
10940;BME280;5522;42.696;23.494;2023-12-07T12:38:36;53871.91;;;-139.68;100.00
10940;BME280;5522;42.696;23.494;2023-12-07T12:41:04;53924.16;;;-139.68;100.00
10940;BME280;5522;42.696;23.494;2023-12-07T12:43:31;53888.00;;;-139.68;100.00